sensor_id;sensor_type;location;lat;lon;timestamp;P1;durP1;ratioP1;P2;durP2;ratioP2
43998;SDS011;51319;52.162;5.302;2024-03-08T00:00:11;47.28;;;24.70;;
43998;SDS011;51319;52.162;5.302;2024-03-08T00:02:41;49.28;;;24.73;;
43998;SDS011;51319;52.162;5.302;2024-03-08T00:05:09;56.42;;;25.83;;
43998;SDS011;51319;52.162;5.302;2024-03-08T00:07:40;53.85;;;27.00;;
43998;SDS011;51319;52.162;5.302;2024-03-08T00:10:09;54.28;;;26.20;;
43998;SDS011;51319;52.162;5.302;2024-03-08T00:12:39;56.17;;;26.98;;
43998;SDS011;51319;52.162;5.302;2024-03-08T00:15:15;58.25;;;25.23;;
43998;SDS011;51319;52.162;5.302;2024-03-08T00:17:45;51.42;;;25.75;;
43998;SDS011;51319;52.162;5.302;2024-03-08T00:20:14;52.03;;;25.52;;
43998;SDS011;51319;52.162;5.302;2024-03-08T00:22:41;53.35;;;22.70;;
43998;SDS011;51319;52.162;5.302;2024-03-08T00:25:09;50.25;;;25.08;;
43998;SDS011;51319;52.162;5.302;2024-03-08T00:27:38;52.53;;;26.55;;
43998;SDS011;51319;52.162;5.302;2024-03-08T00:30:05;54.25;;;25.20;;
43998;SDS011;51319;52.162;5.302;2024-03-08T00:32:34;47.88;;;25.35;;
43998;SDS011;51319;52.162;5.302;2024-03-08T00:35:03;53.72;;;25.73;;
43998;SDS011;51319;52.162;5.302;2024-03-08T00:37:34;52.13;;;24.15;;
43998;SDS011;51319;52.162;5.302;2024-03-08T00:40:03;50.90;;;25.60;;
43998;SDS011;51319;52.162;5.302;2024-03-08T00:42:32;48.30;;;23.77;;
43998;SDS011;51319;52.162;5.302;2024-03-08T00:45:00;52.88;;;25.27;;
43998;SDS011;51319;52.162;5.302;2024-03-08T00:47:28;49.35;;;23.23;;
43998;SDS011;51319;52.162;5.302;2024-03-08T00:49:55;49.10;;;24.80;;
43998;SDS011;51319;52.162;5.302;2024-03-08T00:52:23;54.60;;;25.83;;
43998;SDS011;51319;52.162;5.302;2024-03-08T00:54:51;58.50;;;27.48;;
43998;SDS011;51319;52.162;5.302;2024-03-08T00:57:18;50.30;;;26.20;;
43998;SDS011;51319;52.162;5.302;2024-03-08T00:59:46;55.28;;;26.60;;
43998;SDS011;51319;52.162;5.302;2024-03-08T01:02:14;35.40;;;19.33;;
43998;SDS011;51319;52.162;5.302;2024-03-08T01:04:43;48.42;;;25.48;;
43998;SDS011;51319;52.162;5.302;2024-03-08T01:07:10;54.45;;;26.00;;
43998;SDS011;51319;52.162;5.302;2024-03-08T01:09:37;50.75;;;25.77;;
43998;SDS011;51319;52.162;5.302;2024-03-08T01:12:07;47.67;;;24.50;;
43998;SDS011;51319;52.162;5.302;2024-03-08T01:14:34;49.05;;;26.88;;
43998;SDS011;51319;52.162;5.302;2024-03-08T01:17:02;51.40;;;25.77;;
43998;SDS011;51319;52.162;5.302;2024-03-08T01:19:29;54.10;;;27.50;;
43998;SDS011;51319;52.162;5.302;2024-03-08T01:21:58;50.38;;;27.02;;
43998;SDS011;51319;52.162;5.302;2024-03-08T01:24:25;54.53;;;27.15;;
43998;SDS011;51319;52.162;5.302;2024-03-08T01:26:52;50.72;;;25.85;;
43998;SDS011;51319;52.162;5.302;2024-03-08T01:29:21;52.33;;;27.25;;
43998;SDS011;51319;52.162;5.302;2024-03-08T01:31:48;49.78;;;25.88;;
43998;SDS011;51319;52.162;5.302;2024-03-08T01:34:16;53.20;;;24.45;;
43998;SDS011;51319;52.162;5.302;2024-03-08T01:36:43;51.20;;;25.67;;
43998;SDS011;51319;52.162;5.302;2024-03-08T01:39:10;51.85;;;26.67;;
43998;SDS011;51319;52.162;5.302;2024-03-08T01:41:37;47.35;;;25.90;;
43998;SDS011;51319;52.162;5.302;2024-03-08T01:44:05;48.75;;;24.50;;
43998;SDS011;51319;52.162;5.302;2024-03-08T01:46:33;51.83;;;26.73;;
43998;SDS011;51319;52.162;5.302;2024-03-08T01:49:01;51.97;;;25.60;;
43998;SDS011;51319;52.162;5.302;2024-03-08T01:51:29;51.75;;;23.63;;
43998;SDS011;51319;52.162;5.302;2024-03-08T01:53:59;47.28;;;25.00;;
43998;SDS011;51319;52.162;5.302;2024-03-08T01:56:29;41.28;;;23.02;;
43998;SDS011;51319;52.162;5.302;2024-03-08T01:58:58;53.10;;;27.00;;
43998;SDS011;51319;52.162;5.302;2024-03-08T02:01:26;50.50;;;26.52;;
43998;SDS011;51319;52.162;5.302;2024-03-08T02:03:55;52.75;;;26.38;;
43998;SDS011;51319;52.162;5.302;2024-03-08T02:06:22;61.75;;;27.35;;
43998;SDS011;51319;52.162;5.302;2024-03-08T02:08:49;48.80;;;25.63;;
43998;SDS011;51319;52.162;5.302;2024-03-08T02:11:17;44.17;;;23.65;;
43998;SDS011;51319;52.162;5.302;2024-03-08T02:13:45;57.83;;;27.60;;
43998;SDS011;51319;52.162;5.302;2024-03-08T02:16:19;44.88;;;23.20;;
43998;SDS011;51319;52.162;5.302;2024-03-08T02:18:47;53.10;;;27.80;;
43998;SDS011;51319;52.162;5.302;2024-03-08T02:21:15;50.08;;;23.33;;
43998;SDS011;51319;52.162;5.302;2024-03-08T02:23:47;63.80;;;30.02;;
43998;SDS011;51319;52.162;5.302;2024-03-08T02:26:14;51.72;;;27.05;;
43998;SDS011;51319;52.162;5.302;2024-03-08T02:28:42;52.03;;;25.75;;
43998;SDS011;51319;52.162;5.302;2024-03-08T02:31:11;56.78;;;27.45;;
43998;SDS011;51319;52.162;5.302;2024-03-08T02:33:38;46.80;;;26.00;;
43998;SDS011;51319;52.162;5.302;2024-03-08T02:36:06;67.72;;;28.88;;
43998;SDS011;51319;52.162;5.302;2024-03-08T02:38:33;50.30;;;26.52;;
43998;SDS011;51319;52.162;5.302;2024-03-08T02:41:02;52.97;;;27.10;;
43998;SDS011;51319;52.162;5.302;2024-03-08T02:43:30;40.05;;;18.42;;
43998;SDS011;51319;52.162;5.302;2024-03-08T02:45:59;53.58;;;28.88;;
43998;SDS011;51319;52.162;5.302;2024-03-08T02:48:26;50.00;;;26.15;;
43998;SDS011;51319;52.162;5.302;2024-03-08T02:50:54;49.65;;;25.40;;
43998;SDS011;51319;52.162;5.302;2024-03-08T02:53:21;51.80;;;29.50;;
43998;SDS011;51319;52.162;5.302;2024-03-08T02:55:49;53.72;;;27.85;;
43998;SDS011;51319;52.162;5.302;2024-03-08T02:58:16;53.35;;;27.92;;
43998;SDS011;51319;52.162;5.302;2024-03-08T03:00:43;55.47;;;29.08;;
43998;SDS011;51319;52.162;5.302;2024-03-08T03:03:11;52.63;;;28.17;;
43998;SDS011;51319;52.162;5.302;2024-03-08T03:05:39;48.63;;;28.73;;
43998;SDS011;51319;52.162;5.302;2024-03-08T03:08:14;53.58;;;28.50;;
43998;SDS011;51319;52.162;5.302;2024-03-08T03:10:45;50.13;;;27.75;;
43998;SDS011;51319;52.162;5.302;2024-03-08T03:13:14;47.95;;;27.08;;
43998;SDS011;51319;52.162;5.302;2024-03-08T03:15:42;51.60;;;25.70;;
43998;SDS011;51319;52.162;5.302;2024-03-08T03:18:10;53.70;;;28.60;;
43998;SDS011;51319;52.162;5.302;2024-03-08T03:20:38;59.55;;;29.00;;
43998;SDS011;51319;52.162;5.302;2024-03-08T03:23:10;59.83;;;29.05;;
43998;SDS011;51319;52.162;5.302;2024-03-08T03:25:42;52.38;;;28.27;;
43998;SDS011;51319;52.162;5.302;2024-03-08T03:28:09;49.60;;;26.15;;
43998;SDS011;51319;52.162;5.302;2024-03-08T03:30:37;49.50;;;28.25;;
43998;SDS011;51319;52.162;5.302;2024-03-08T03:33:05;52.05;;;28.35;;
43998;SDS011;51319;52.162;5.302;2024-03-08T03:35:36;55.08;;;28.40;;
43998;SDS011;51319;52.162;5.302;2024-03-08T03:38:04;39.22;;;20.70;;
43998;SDS011;51319;52.162;5.302;2024-03-08T03:40:37;54.28;;;28.23;;
43998;SDS011;51319;52.162;5.302;2024-03-08T03:43:05;54.58;;;27.73;;
43998;SDS011;51319;52.162;5.302;2024-03-08T03:45:35;54.15;;;29.17;;
43998;SDS011;51319;52.162;5.302;2024-03-08T03:48:06;52.38;;;27.80;;
43998;SDS011;51319;52.162;5.302;2024-03-08T03:50:37;48.72;;;27.77;;
43998;SDS011;51319;52.162;5.302;2024-03-08T03:53:06;54.88;;;28.55;;
43998;SDS011;51319;52.162;5.302;2024-03-08T03:55:36;54.05;;;28.83;;
43998;SDS011;51319;52.162;5.302;2024-03-08T03:58:07;54.35;;;27.75;;
43998;SDS011;51319;52.162;5.302;2024-03-08T04:00:37;43.80;;;20.90;;
43998;SDS011;51319;52.162;5.302;2024-03-08T04:03:04;48.63;;;23.02;;
43998;SDS011;51319;52.162;5.302;2024-03-08T04:05:34;46.60;;;25.65;;
43998;SDS011;51319;52.162;5.302;2024-03-08T04:08:01;53.78;;;28.40;;
43998;SDS011;51319;52.162;5.302;2024-03-08T04:10:29;53.05;;;27.65;;
43998;SDS011;51319;52.162;5.302;2024-03-08T04:12:57;41.38;;;21.67;;
43998;SDS011;51319;52.162;5.302;2024-03-08T04:15:24;48.17;;;27.45;;
43998;SDS011;51319;52.162;5.302;2024-03-08T04:17:51;54.05;;;29.40;;
43998;SDS011;51319;52.162;5.302;2024-03-08T04:20:19;40.30;;;18.45;;
43998;SDS011;51319;52.162;5.302;2024-03-08T04:22:48;35.38;;;18.63;;
43998;SDS011;51319;52.162;5.302;2024-03-08T04:25:16;56.63;;;29.63;;
43998;SDS011;51319;52.162;5.302;2024-03-08T04:27:43;54.30;;;27.88;;
43998;SDS011;51319;52.162;5.302;2024-03-08T04:30:12;50.20;;;28.50;;
43998;SDS011;51319;52.162;5.302;2024-03-08T04:32:39;49.63;;;28.70;;
43998;SDS011;51319;52.162;5.302;2024-03-08T04:35:08;48.92;;;25.02;;
43998;SDS011;51319;52.162;5.302;2024-03-08T04:37:35;54.05;;;28.95;;
43998;SDS011;51319;52.162;5.302;2024-03-08T04:40:03;50.25;;;26.13;;
43998;SDS011;51319;52.162;5.302;2024-03-08T04:42:32;52.83;;;27.67;;
43998;SDS011;51319;52.162;5.302;2024-03-08T04:45:00;45.35;;;26.73;;
43998;SDS011;51319;52.162;5.302;2024-03-08T04:47:27;44.97;;;28.20;;
43998;SDS011;51319;52.162;5.302;2024-03-08T04:49:55;45.75;;;25.90;;
43998;SDS011;51319;52.162;5.302;2024-03-08T04:52:23;46.47;;;26.20;;
43998;SDS011;51319;52.162;5.302;2024-03-08T04:54:52;47.40;;;25.85;;
43998;SDS011;51319;52.162;5.302;2024-03-08T04:57:19;55.42;;;29.65;;
43998;SDS011;51319;52.162;5.302;2024-03-08T04:59:47;47.80;;;27.70;;
43998;SDS011;51319;52.162;5.302;2024-03-08T05:02:14;51.00;;;28.88;;
43998;SDS011;51319;52.162;5.302;2024-03-08T05:04:42;53.90;;;29.63;;
43998;SDS011;51319;52.162;5.302;2024-03-08T05:07:09;54.05;;;29.83;;
43998;SDS011;51319;52.162;5.302;2024-03-08T05:09:36;51.20;;;27.92;;
43998;SDS011;51319;52.162;5.302;2024-03-08T05:12:06;52.05;;;28.60;;
43998;SDS011;51319;52.162;5.302;2024-03-08T05:14:34;48.05;;;26.73;;
43998;SDS011;51319;52.162;5.302;2024-03-08T05:17:01;52.20;;;28.30;;
43998;SDS011;51319;52.162;5.302;2024-03-08T05:19:29;54.00;;;30.63;;
43998;SDS011;51319;52.162;5.302;2024-03-08T05:22:00;51.28;;;28.60;;
43998;SDS011;51319;52.162;5.302;2024-03-08T05:24:29;44.17;;;23.35;;
43998;SDS011;51319;52.162;5.302;2024-03-08T05:26:57;51.95;;;30.98;;
43998;SDS011;51319;52.162;5.302;2024-03-08T05:29:26;44.28;;;25.50;;
43998;SDS011;51319;52.162;5.302;2024-03-08T05:31:54;32.72;;;17.48;;
43998;SDS011;51319;52.162;5.302;2024-03-08T05:34:23;39.95;;;18.05;;
43998;SDS011;51319;52.162;5.302;2024-03-08T05:36:51;39.10;;;19.83;;
43998;SDS011;51319;52.162;5.302;2024-03-08T05:39:18;40.67;;;22.10;;
43998;SDS011;51319;52.162;5.302;2024-03-08T05:41:50;53.17;;;30.33;;
43998;SDS011;51319;52.162;5.302;2024-03-08T05:44:18;43.33;;;22.85;;
43998;SDS011;51319;52.162;5.302;2024-03-08T05:46:46;44.95;;;22.75;;
43998;SDS011;51319;52.162;5.302;2024-03-08T05:49:14;54.60;;;30.02;;
43998;SDS011;51319;52.162;5.302;2024-03-08T05:51:41;45.45;;;24.70;;
43998;SDS011;51319;52.162;5.302;2024-03-08T05:54:09;48.22;;;25.85;;
43998;SDS011;51319;52.162;5.302;2024-03-08T05:56:41;49.63;;;23.73;;
43998;SDS011;51319;52.162;5.302;2024-03-08T05:59:10;38.47;;;20.55;;
43998;SDS011;51319;52.162;5.302;2024-03-08T06:01:37;50.45;;;29.27;;
43998;SDS011;51319;52.162;5.302;2024-03-08T06:04:08;50.45;;;29.50;;
43998;SDS011;51319;52.162;5.302;2024-03-08T06:06:38;51.95;;;29.52;;
43998;SDS011;51319;52.162;5.302;2024-03-08T06:09:07;51.92;;;29.05;;
43998;SDS011;51319;52.162;5.302;2024-03-08T06:11:44;53.55;;;29.88;;
43998;SDS011;51319;52.162;5.302;2024-03-08T06:14:12;54.30;;;25.83;;
43998;SDS011;51319;52.162;5.302;2024-03-08T06:16:40;56.20;;;30.75;;
43998;SDS011;51319;52.162;5.302;2024-03-08T06:19:07;56.40;;;29.52;;
43998;SDS011;51319;52.162;5.302;2024-03-08T06:21:34;55.55;;;29.17;;
43998;SDS011;51319;52.162;5.302;2024-03-08T06:24:01;47.25;;;28.27;;
43998;SDS011;51319;52.162;5.302;2024-03-08T06:26:29;51.28;;;30.05;;
43998;SDS011;51319;52.162;5.302;2024-03-08T06:29:01;48.47;;;26.63;;
43998;SDS011;51319;52.162;5.302;2024-03-08T06:31:28;46.47;;;27.88;;
43998;SDS011;51319;52.162;5.302;2024-03-08T06:33:57;54.75;;;29.45;;
43998;SDS011;51319;52.162;5.302;2024-03-08T06:36:24;54.95;;;30.58;;
43998;SDS011;51319;52.162;5.302;2024-03-08T06:38:51;54.90;;;29.35;;
43998;SDS011;51319;52.162;5.302;2024-03-08T06:41:19;51.80;;;29.55;;
43998;SDS011;51319;52.162;5.302;2024-03-08T06:43:46;48.15;;;26.52;;
43998;SDS011;51319;52.162;5.302;2024-03-08T06:46:15;49.92;;;27.85;;
43998;SDS011;51319;52.162;5.302;2024-03-08T06:48:42;37.13;;;21.35;;
43998;SDS011;51319;52.162;5.302;2024-03-08T06:51:10;50.58;;;26.40;;
43998;SDS011;51319;52.162;5.302;2024-03-08T06:53:37;56.67;;;30.27;;
43998;SDS011;51319;52.162;5.302;2024-03-08T06:56:06;79.50;;;41.90;;
43998;SDS011;51319;52.162;5.302;2024-03-08T06:58:35;50.63;;;29.33;;
43998;SDS011;51319;52.162;5.302;2024-03-08T07:01:02;44.88;;;26.67;;
43998;SDS011;51319;52.162;5.302;2024-03-08T07:03:31;47.85;;;25.33;;
43998;SDS011;51319;52.162;5.302;2024-03-08T07:05:59;33.90;;;19.63;;
43998;SDS011;51319;52.162;5.302;2024-03-08T07:08:29;46.72;;;27.90;;
43998;SDS011;51319;52.162;5.302;2024-03-08T07:10:56;47.45;;;27.52;;
43998;SDS011;51319;52.162;5.302;2024-03-08T07:13:25;49.20;;;26.17;;
43998;SDS011;51319;52.162;5.302;2024-03-08T07:15:55;49.92;;;28.08;;
43998;SDS011;51319;52.162;5.302;2024-03-08T07:18:22;48.38;;;27.83;;
43998;SDS011;51319;52.162;5.302;2024-03-08T07:20:53;38.03;;;22.70;;
43998;SDS011;51319;52.162;5.302;2024-03-08T07:23:20;49.70;;;25.45;;
43998;SDS011;51319;52.162;5.302;2024-03-08T07:26:10;46.63;;;25.95;;
43998;SDS011;51319;52.162;5.302;2024-03-08T07:28:37;47.83;;;28.13;;
43998;SDS011;51319;52.162;5.302;2024-03-08T07:31:05;48.42;;;27.25;;
43998;SDS011;51319;52.162;5.302;2024-03-08T07:33:38;43.63;;;17.45;;
43998;SDS011;51319;52.162;5.302;2024-03-08T07:36:06;48.10;;;27.75;;
43998;SDS011;51319;52.162;5.302;2024-03-08T07:38:33;45.17;;;26.98;;
43998;SDS011;51319;52.162;5.302;2024-03-08T07:41:01;49.42;;;27.77;;
43998;SDS011;51319;52.162;5.302;2024-03-08T07:43:32;51.25;;;27.92;;
43998;SDS011;51319;52.162;5.302;2024-03-08T07:46:00;35.83;;;19.88;;
43998;SDS011;51319;52.162;5.302;2024-03-08T07:48:27;50.28;;;28.33;;
43998;SDS011;51319;52.162;5.302;2024-03-08T07:50:54;38.80;;;23.23;;
43998;SDS011;51319;52.162;5.302;2024-03-08T07:53:22;44.78;;;26.77;;
43998;SDS011;51319;52.162;5.302;2024-03-08T07:55:51;41.40;;;27.35;;
43998;SDS011;51319;52.162;5.302;2024-03-08T07:58:19;44.47;;;27.05;;
43998;SDS011;51319;52.162;5.302;2024-03-08T08:00:46;47.65;;;26.15;;
43998;SDS011;51319;52.162;5.302;2024-03-08T08:03:13;49.58;;;28.67;;
43998;SDS011;51319;52.162;5.302;2024-03-08T08:05:42;43.10;;;25.20;;
43998;SDS011;51319;52.162;5.302;2024-03-08T08:08:09;40.60;;;26.67;;
43998;SDS011;51319;52.162;5.302;2024-03-08T08:10:38;35.30;;;22.67;;
43998;SDS011;51319;52.162;5.302;2024-03-08T08:13:07;54.13;;;33.97;;
43998;SDS011;51319;52.162;5.302;2024-03-08T08:15:34;35.13;;;24.90;;
43998;SDS011;51319;52.162;5.302;2024-03-08T08:18:02;40.78;;;25.02;;
43998;SDS011;51319;52.162;5.302;2024-03-08T08:20:33;40.53;;;24.88;;
43998;SDS011;51319;52.162;5.302;2024-03-08T08:23:00;36.67;;;23.67;;
43998;SDS011;51319;52.162;5.302;2024-03-08T08:25:27;34.65;;;23.48;;
43998;SDS011;51319;52.162;5.302;2024-03-08T08:27:54;30.45;;;23.10;;
43998;SDS011;51319;52.162;5.302;2024-03-08T08:30:22;33.17;;;22.33;;
43998;SDS011;51319;52.162;5.302;2024-03-08T08:32:49;34.08;;;22.75;;
43998;SDS011;51319;52.162;5.302;2024-03-08T08:35:16;31.65;;;21.58;;
43998;SDS011;51319;52.162;5.302;2024-03-08T08:37:46;29.73;;;21.00;;
43998;SDS011;51319;52.162;5.302;2024-03-08T08:40:13;31.77;;;22.05;;
43998;SDS011;51319;52.162;5.302;2024-03-08T08:42:42;28.50;;;20.85;;
43998;SDS011;51319;52.162;5.302;2024-03-08T08:45:09;26.30;;;16.08;;
43998;SDS011;51319;52.162;5.302;2024-03-08T08:47:43;30.10;;;22.02;;
43998;SDS011;51319;52.162;5.302;2024-03-08T08:50:12;28.17;;;21.73;;
43998;SDS011;51319;52.162;5.302;2024-03-08T08:52:40;29.17;;;20.35;;
43998;SDS011;51319;52.162;5.302;2024-03-08T08:55:10;29.50;;;21.50;;
43998;SDS011;51319;52.162;5.302;2024-03-08T08:57:41;27.48;;;20.75;;
43998;SDS011;51319;52.162;5.302;2024-03-08T09:00:09;26.70;;;20.95;;
43998;SDS011;51319;52.162;5.302;2024-03-08T09:02:42;30.02;;;22.38;;
43998;SDS011;51319;52.162;5.302;2024-03-08T09:05:09;26.17;;;18.48;;
43998;SDS011;51319;52.162;5.302;2024-03-08T09:07:38;27.73;;;21.50;;
43998;SDS011;51319;52.162;5.302;2024-03-08T09:10:05;26.58;;;20.77;;
43998;SDS011;51319;52.162;5.302;2024-03-08T09:12:43;27.98;;;21.10;;
43998;SDS011;51319;52.162;5.302;2024-03-08T09:15:10;29.58;;;21.02;;
43998;SDS011;51319;52.162;5.302;2024-03-08T09:17:38;29.90;;;21.83;;
43998;SDS011;51319;52.162;5.302;2024-03-08T09:20:08;26.85;;;20.05;;
43998;SDS011;51319;52.162;5.302;2024-03-08T09:22:37;29.77;;;20.75;;
43998;SDS011;51319;52.162;5.302;2024-03-08T09:25:04;28.55;;;19.00;;
43998;SDS011;51319;52.162;5.302;2024-03-08T09:27:32;23.02;;;18.85;;
43998;SDS011;51319;52.162;5.302;2024-03-08T09:30:04;27.70;;;20.75;;
43998;SDS011;51319;52.162;5.302;2024-03-08T09:32:34;23.67;;;19.63;;
43998;SDS011;51319;52.162;5.302;2024-03-08T09:35:01;26.88;;;20.13;;
43998;SDS011;51319;52.162;5.302;2024-03-08T09:37:29;27.20;;;20.52;;
43998;SDS011;51319;52.162;5.302;2024-03-08T09:39:57;25.98;;;20.42;;
43998;SDS011;51319;52.162;5.302;2024-03-08T09:42:26;22.98;;;18.02;;
43998;SDS011;51319;52.162;5.302;2024-03-08T09:44:54;23.80;;;18.15;;
43998;SDS011;51319;52.162;5.302;2024-03-08T09:47:21;23.20;;;19.00;;
43998;SDS011;51319;52.162;5.302;2024-03-08T09:49:51;29.38;;;21.05;;
43998;SDS011;51319;52.162;5.302;2024-03-08T09:52:20;26.75;;;19.38;;
43998;SDS011;51319;52.162;5.302;2024-03-08T09:54:47;22.77;;;18.55;;
43998;SDS011;51319;52.162;5.302;2024-03-08T09:57:16;27.52;;;20.45;;
43998;SDS011;51319;52.162;5.302;2024-03-08T09:59:46;27.48;;;18.77;;
43998;SDS011;51319;52.162;5.302;2024-03-08T10:02:15;22.60;;;16.60;;
43998;SDS011;51319;52.162;5.302;2024-03-08T10:04:43;25.52;;;19.58;;
43998;SDS011;51319;52.162;5.302;2024-03-08T10:07:13;23.20;;;19.65;;
43998;SDS011;51319;52.162;5.302;2024-03-08T10:09:40;22.35;;;18.92;;
43998;SDS011;51319;52.162;5.302;2024-03-08T10:12:13;23.73;;;19.30;;
43998;SDS011;51319;52.162;5.302;2024-03-08T10:14:46;29.20;;;22.13;;
43998;SDS011;51319;52.162;5.302;2024-03-08T10:17:13;24.20;;;19.25;;
43998;SDS011;51319;52.162;5.302;2024-03-08T10:19:48;23.60;;;19.13;;
43998;SDS011;51319;52.162;5.302;2024-03-08T10:22:17;22.95;;;18.92;;
43998;SDS011;51319;52.162;5.302;2024-03-08T10:24:46;23.58;;;17.05;;
43998;SDS011;51319;52.162;5.302;2024-03-08T10:27:14;24.38;;;19.83;;
43998;SDS011;51319;52.162;5.302;2024-03-08T10:29:47;26.85;;;17.17;;
43998;SDS011;51319;52.162;5.302;2024-03-08T10:32:15;24.30;;;18.60;;
43998;SDS011;51319;52.162;5.302;2024-03-08T10:34:42;21.67;;;17.05;;
43998;SDS011;51319;52.162;5.302;2024-03-08T10:37:12;21.38;;;15.35;;
43998;SDS011;51319;52.162;5.302;2024-03-08T10:39:46;23.27;;;17.77;;
43998;SDS011;51319;52.162;5.302;2024-03-08T10:42:28;21.85;;;15.77;;
43998;SDS011;51319;52.162;5.302;2024-03-08T10:45:10;19.50;;;17.27;;
43998;SDS011;51319;52.162;5.302;2024-03-08T10:47:49;21.27;;;17.10;;
43998;SDS011;51319;52.162;5.302;2024-03-08T10:50:21;19.25;;;16.38;;
43998;SDS011;51319;52.162;5.302;2024-03-08T10:52:49;20.52;;;16.73;;
43998;SDS011;51319;52.162;5.302;2024-03-08T10:55:18;22.17;;;16.85;;
43998;SDS011;51319;52.162;5.302;2024-03-08T10:57:47;23.50;;;17.23;;
43998;SDS011;51319;52.162;5.302;2024-03-08T11:00:14;20.02;;;16.67;;
43998;SDS011;51319;52.162;5.302;2024-03-08T11:02:45;18.52;;;16.27;;
43998;SDS011;51319;52.162;5.302;2024-03-08T11:10:50;19.30;;;15.15;;
43998;SDS011;51319;52.162;5.302;2024-03-08T11:13:41;18.02;;;15.07;;
43998;SDS011;51319;52.162;5.302;2024-03-08T11:16:36;19.05;;;16.33;;
43998;SDS011;51319;52.162;5.302;2024-03-08T11:19:00;21.08;;;15.43;;
43998;SDS011;51319;52.162;5.302;2024-03-08T11:21:32;19.67;;;16.98;;
43998;SDS011;51319;52.162;5.302;2024-03-08T11:24:13;22.65;;;16.60;;
43998;SDS011;51319;52.162;5.302;2024-03-08T11:34:39;23.10;;;15.98;;
43998;SDS011;51319;52.162;5.302;2024-03-08T11:37:17;16.98;;;15.25;;
43998;SDS011;51319;52.162;5.302;2024-03-08T11:39:50;19.25;;;15.77;;
43998;SDS011;51319;52.162;5.302;2024-03-08T11:42:19;16.08;;;14.40;;
43998;SDS011;51319;52.162;5.302;2024-03-08T11:44:46;19.83;;;15.88;;
43998;SDS011;51319;52.162;5.302;2024-03-08T11:47:14;19.90;;;15.35;;
43998;SDS011;51319;52.162;5.302;2024-03-08T11:49:43;19.38;;;14.82;;
43998;SDS011;51319;52.162;5.302;2024-03-08T11:52:11;16.35;;;14.10;;
43998;SDS011;51319;52.162;5.302;2024-03-08T11:54:41;21.10;;;18.85;;
43998;SDS011;51319;52.162;5.302;2024-03-08T11:57:13;18.13;;;16.23;;
43998;SDS011;51319;52.162;5.302;2024-03-08T11:59:46;20.08;;;15.10;;
43998;SDS011;51319;52.162;5.302;2024-03-08T12:02:21;15.68;;;13.23;;
43998;SDS011;51319;52.162;5.302;2024-03-08T12:04:55;18.38;;;14.63;;
43998;SDS011;51319;52.162;5.302;2024-03-08T12:07:24;15.73;;;13.48;;
43998;SDS011;51319;52.162;5.302;2024-03-08T12:12:52;16.43;;;13.43;;
43998;SDS011;51319;52.162;5.302;2024-03-08T12:15:20;13.77;;;11.75;;
43998;SDS011;51319;52.162;5.302;2024-03-08T12:17:52;15.25;;;13.27;;
43998;SDS011;51319;52.162;5.302;2024-03-08T12:20:23;14.27;;;12.30;;
43998;SDS011;51319;52.162;5.302;2024-03-08T12:22:55;16.80;;;13.00;;
43998;SDS011;51319;52.162;5.302;2024-03-08T12:25:27;17.23;;;13.05;;
43998;SDS011;51319;52.162;5.302;2024-03-08T12:28:07;15.60;;;13.90;;
43998;SDS011;51319;52.162;5.302;2024-03-08T12:30:47;15.77;;;13.15;;
43998;SDS011;51319;52.162;5.302;2024-03-08T12:33:20;16.15;;;13.02;;
43998;SDS011;51319;52.162;5.302;2024-03-08T12:35:52;13.13;;;11.82;;
43998;SDS011;51319;52.162;5.302;2024-03-08T12:38:22;16.35;;;12.75;;
43998;SDS011;51319;52.162;5.302;2024-03-08T12:40:57;16.38;;;12.00;;
43998;SDS011;51319;52.162;5.302;2024-03-08T12:43:26;16.23;;;12.63;;
43998;SDS011;51319;52.162;5.302;2024-03-08T12:45:58;13.98;;;12.35;;
43998;SDS011;51319;52.162;5.302;2024-03-08T12:48:25;17.00;;;13.13;;
43998;SDS011;51319;52.162;5.302;2024-03-08T12:50:52;14.27;;;12.18;;
43998;SDS011;51319;52.162;5.302;2024-03-08T12:53:21;13.82;;;11.75;;
43998;SDS011;51319;52.162;5.302;2024-03-08T12:55:50;18.90;;;14.00;;
43998;SDS011;51319;52.162;5.302;2024-03-08T12:58:17;19.35;;;12.48;;
43998;SDS011;51319;52.162;5.302;2024-03-08T13:00:44;20.42;;;14.15;;
43998;SDS011;51319;52.162;5.302;2024-03-08T13:03:12;15.70;;;13.07;;
43998;SDS011;51319;52.162;5.302;2024-03-08T13:05:40;20.77;;;14.23;;
43998;SDS011;51319;52.162;5.302;2024-03-08T13:08:09;21.23;;;14.25;;
43998;SDS011;51319;52.162;5.302;2024-03-08T13:10:40;16.48;;;13.30;;
43998;SDS011;51319;52.162;5.302;2024-03-08T13:13:11;17.25;;;14.68;;
43998;SDS011;51319;52.162;5.302;2024-03-08T13:15:42;20.50;;;13.32;;
43998;SDS011;51319;52.162;5.302;2024-03-08T13:18:09;16.33;;;12.02;;
43998;SDS011;51319;52.162;5.302;2024-03-08T13:20:37;21.15;;;14.88;;
43998;SDS011;51319;52.162;5.302;2024-03-08T13:23:13;16.75;;;13.35;;
43998;SDS011;51319;52.162;5.302;2024-03-08T13:25:40;19.13;;;11.98;;
43998;SDS011;51319;52.162;5.302;2024-03-08T13:28:07;22.52;;;16.60;;
43998;SDS011;51319;52.162;5.302;2024-03-08T13:30:35;17.15;;;13.35;;
43998;SDS011;51319;52.162;5.302;2024-03-08T13:33:03;17.48;;;14.02;;
43998;SDS011;51319;52.162;5.302;2024-03-08T13:35:31;18.08;;;14.88;;
43998;SDS011;51319;52.162;5.302;2024-03-08T13:38:02;23.90;;;15.90;;
43998;SDS011;51319;52.162;5.302;2024-03-08T13:40:35;20.60;;;14.75;;
43998;SDS011;51319;52.162;5.302;2024-03-08T13:43:03;23.33;;;16.42;;
43998;SDS011;51319;52.162;5.302;2024-03-08T13:45:34;26.50;;;14.90;;
43998;SDS011;51319;52.162;5.302;2024-03-08T13:48:04;18.75;;;14.35;;
43998;SDS011;51319;52.162;5.302;2024-03-08T13:50:31;20.98;;;13.65;;
43998;SDS011;51319;52.162;5.302;2024-03-08T13:52:58;18.88;;;13.50;;
43998;SDS011;51319;52.162;5.302;2024-03-08T13:55:26;19.02;;;14.43;;
43998;SDS011;51319;52.162;5.302;2024-03-08T13:57:53;21.90;;;14.15;;
43998;SDS011;51319;52.162;5.302;2024-03-08T14:00:21;17.75;;;14.70;;
43998;SDS011;51319;52.162;5.302;2024-03-08T14:02:49;20.55;;;10.93;;
43998;SDS011;51319;52.162;5.302;2024-03-08T14:05:16;20.23;;;14.55;;
43998;SDS011;51319;52.162;5.302;2024-03-08T14:07:47;16.52;;;12.82;;
43998;SDS011;51319;52.162;5.302;2024-03-08T14:10:16;20.73;;;15.77;;
43998;SDS011;51319;52.162;5.302;2024-03-08T14:12:50;19.00;;;14.23;;
43998;SDS011;51319;52.162;5.302;2024-03-08T14:15:17;19.60;;;14.82;;
43998;SDS011;51319;52.162;5.302;2024-03-08T14:17:44;20.30;;;14.75;;
43998;SDS011;51319;52.162;5.302;2024-03-08T14:20:13;19.88;;;15.18;;
43998;SDS011;51319;52.162;5.302;2024-03-08T14:22:41;22.40;;;15.43;;
43998;SDS011;51319;52.162;5.302;2024-03-08T14:25:08;17.48;;;13.18;;
43998;SDS011;51319;52.162;5.302;2024-03-08T14:27:45;19.38;;;14.68;;
43998;SDS011;51319;52.162;5.302;2024-03-08T14:30:13;22.60;;;15.18;;
43998;SDS011;51319;52.162;5.302;2024-03-08T14:32:56;23.23;;;15.07;;
43998;SDS011;51319;52.162;5.302;2024-03-08T14:35:29;23.52;;;13.75;;
43998;SDS011;51319;52.162;5.302;2024-03-08T14:37:57;19.00;;;14.35;;
43998;SDS011;51319;52.162;5.302;2024-03-08T14:40:25;20.63;;;13.68;;
43998;SDS011;51319;52.162;5.302;2024-03-08T14:42:52;21.65;;;15.32;;
43998;SDS011;51319;52.162;5.302;2024-03-08T14:45:19;22.77;;;14.00;;
43998;SDS011;51319;52.162;5.302;2024-03-08T14:47:47;19.42;;;12.93;;